Time;durP1;ratioP1;P1;durP2;ratioP2;P2;SDS_P1;SDS_P2;PMS_P1;PMS_P2;Temp;Humidity;BMP_temperature;BMP_pressure;BME280_temperature;BME280_humidity;BME280_pressure;Samples;Min_cycle;Max_cycle;Signal;HPM_P1;HPM_P2
2023/08/15 00:01:49;;;;;;;0.50;0.50;;;;;;;20.92;62.32;96595.63;10469028;28;20036;-29
2023/08/15 00:06:49;;;;;;;0.40;0.40;;;;;;;20.93;62.51;96601.53;10484907;28;20039;-29
2023/08/15 00:11:50;;;;;;;0.53;0.43;;;;;;;20.91;62.38;96599.03;10491758;28;20664;-29
2023/08/15 00:16:50;;;;;;;0.40;0.40;;;;;;;20.91;62.14;96588.84;10479453;28;20040;-30
2023/08/15 00:21:51;;;;;;;0.60;0.60;;;;;;;20.91;62.25;96590.53;10491742;28;20468;-30
2023/08/15 00:26:51;;;;;;;0.50;0.50;;;;;;;20.92;62.31;96587.13;10478892;28;20494;-29
2023/08/15 00:31:51;;;;;;;0.40;0.40;;;;;;;20.91;61.96;96583.75;10481729;28;20524;-29
2023/08/15 00:36:52;;;;;;;0.57;0.57;;;;;;;20.93;62.11;96578.63;10476237;28;20406;-29
2023/08/15 00:41:52;;;;;;;0.40;0.40;;;;;;;20.93;62.29;96582.03;10484965;28;20554;-29
2023/08/15 00:46:52;;;;;;;1.77;0.50;;;;;;;20.94;62.51;96583.69;10491797;28;20410;-30
2023/08/15 00:51:53;;;;;;;0.43;0.40;;;;;;;20.92;62.54;96570.16;10484034;28;20454;-28
2023/08/15 00:56:53;;;;;;;0.63;0.50;;;;;;;20.95;62.80;96565.03;10492135;28;20044;-29
2023/08/15 01:01:54;;;;;;;0.68;0.40;;;;;;;20.93;62.50;96558.25;10487241;28;20676;-30
2023/08/15 01:06:55;;;;;;;0.40;0.40;;;;;;;20.94;62.62;96553.16;10488625;28;20032;-29
2023/08/15 01:12:01;;;;;;;0.67;0.67;;;;;;;20.94;62.43;96542.13;10490343;28;20039;-29
2023/08/15 01:17:05;;;;;;;0.40;0.40;;;;;;;20.93;62.36;96546.41;10487198;28;20104;-29
2023/08/15 01:22:15;;;;;;;0.60;0.60;;;;;;;20.95;62.14;96562.47;10488730;28;20123;-29
2023/08/15 01:27:15;;;;;;;0.60;0.50;;;;;;;20.93;62.15;96561.66;10487870;28;20048;-29
2023/08/15 01:32:22;;;;;;;0.40;0.30;;;;;;;20.92;62.08;96559.97;10478374;28;20044;-29
2023/08/15 01:37:29;;;;;;;;;;;;;;;20.92;62.02;96559.97;10474186;28;20532;-29
2023/08/15 01:42:31;;;;;;;0.43;0.40;;;;;;;20.88;62.24;96553.22;10490396;28;20433;-29
2023/08/15 01:47:32;;;;;;;0.60;0.57;;;;;;;20.93;62.20;96545.53;10485017;28;20067;-29
2023/08/15 01:52:33;;;;;;;0.45;0.45;;;;;;;20.93;62.42;96543.00;10497550;28;20033;-29
2023/08/15 01:57:35;;;;;;;0.30;0.30;;;;;;;20.93;62.16;96546.41;10488764;28;20032;-29
2023/08/15 02:02:36;;;;;;;0.50;0.50;;;;;;;20.95;62.33;96543.81;10495499;28;20039;-29
2023/08/15 02:07:39;;;;;;;0.40;0.40;;;;;;;20.92;62.04;96544.72;10494277;28;20287;-29
2023/08/15 02:12:39;;;;;;;0.50;0.50;;;;;;;20.92;61.85;96539.63;10479352;28;20287;-29
2023/08/15 02:17:39;;;;;;;0.30;0.30;;;;;;;20.93;61.96;96543.84;10489997;28;20024;-29
2023/08/15 02:22:40;;;;;;;0.40;0.40;;;;;;;20.91;62.25;96547.25;10496779;28;20032;-30
2023/08/15 02:27:40;;;;;;;0.43;0.43;;;;;;;20.95;61.96;96559.06;10493842;28;20028;-29
2023/08/15 02:32:41;;;;;;;0.50;0.50;;;;;;;20.93;62.00;96554.03;10494389;28;20298;-29
2023/08/15 02:37:44;;;;;;;0.40;0.40;;;;;;;20.94;61.91;96535.34;10495621;28;20470;-29
2023/08/15 02:42:44;;;;;;;0.40;0.40;;;;;;;20.95;62.09;96546.34;10485662;28;20036;-29
2023/08/15 02:47:45;;;;;;;0.50;0.50;;;;;;;20.92;62.17;96549.81;10478539;28;20093;-28
2023/08/15 02:52:45;;;;;;;0.37;0.37;;;;;;;20.92;62.09;96544.72;10484540;28;20029;-29
2023/08/15 02:57:47;;;;;;;0.30;0.30;;;;;;;20.94;62.00;96555.72;10484203;28;20286;-29
2023/08/15 03:02:47;;;;;;;0.30;0.30;;;;;;;20.94;62.13;96570.97;10493033;28;20035;-29
2023/08/15 03:07:48;;;;;;;0.60;0.40;;;;;;;20.94;62.16;96559.94;10486251;28;20024;-29
2023/08/15 03:12:48;;;;;;;0.47;0.30;;;;;;;20.93;62.09;96561.66;10492678;28;20387;-29
2023/08/15 03:17:50;;;;;;;0.40;0.40;;;;;;;20.91;61.96;96563.38;10485266;28;20029;-29
2023/08/15 03:22:51;;;;;;;0.32;0.32;;;;;;;20.94;62.08;96567.56;10475637;28;20275;-29
2023/08/15 03:27:51;;;;;;;0.37;0.37;;;;;;;20.95;61.99;96572.66;10485416;28;20032;-29
2023/08/15 03:32:52;;;;;;;0.40;0.40;;;;;;;20.94;62.09;96577.75;10490572;28;20029;-29
2023/08/15 03:37:53;;;;;;;0.25;0.25;;;;;;;20.95;61.87;96594.72;10478644;28;20036;-29
2023/08/15 03:42:53;;;;;;;0.37;0.30;;;;;;;20.94;61.96;96598.97;10483323;28;20032;-29
2023/08/15 03:47:53;;;;;;;0.30;0.30;;;;;;;20.93;61.99;96587.13;10485758;28;20036;-29
2023/08/15 03:52:54;;;;;;;0.40;0.40;;;;;;;20.93;61.93;96594.75;10474635;28;20037;-29
2023/08/15 03:57:55;;;;;;;1.23;0.40;;;;;;;20.93;61.81;96602.38;10482790;28;20294;-29
2023/08/15 04:02:55;;;;;;;0.30;0.30;;;;;;;20.94;62.31;96610.84;10490826;28;20033;-31
2023/08/15 04:07:55;;;;;;;0.33;0.33;;;;;;;20.95;61.98;96625.25;10486964;28;20036;-29
2023/08/15 04:12:56;;;;;;;0.20;0.20;;;;;;;20.94;61.91;96615.94;10488894;28;20294;-29
2023/08/15 04:17:56;;;;;;;0.40;0.40;;;;;;;20.92;61.85;96605.78;10492353;28;20041;-29
2023/08/15 04:22:57;;;;;;;0.40;0.30;;;;;;;20.94;61.88;96613.38;10487249;28;20028;-30
2023/08/15 04:28:00;;;;;;;0.40;0.40;;;;;;;20.94;61.90;96613.38;10473767;28;20031;-29
2023/08/15 04:33:01;;;;;;;0.30;0.25;;;;;;;20.93;61.83;96617.66;10488795;28;20032;-30
2023/08/15 04:38:02;;;;;;;0.50;0.50;;;;;;;20.94;61.90;96634.59;10481831;28;20078;-29
2023/08/15 04:43:03;;;;;;;0.25;0.25;;;;;;;20.93;61.93;96627.84;10481586;28;20024;-29
2023/08/15 04:48:05;;;;;;;0.60;0.43;;;;;;;20.95;61.98;96626.09;10481823;28;20028;-29
2023/08/15 04:53:05;;;;;;;0.40;0.40;;;;;;;20.96;61.86;96652.41;10489385;28;20033;-30
2023/08/15 04:58:09;;;;;;;0.43;0.40;;;;;;;20.95;61.83;96646.47;10484941;28;20410;-28
2023/08/15 05:03:09;;;;;;;0.40;0.35;;;;;;;20.97;61.94;96661.72;10474027;28;20503;-29
2023/08/15 05:08:09;;;;;;;0.50;0.50;;;;;;;20.96;62.04;96663.41;10480263;28;20040;-29
2023/08/15 05:13:10;;;;;;;0.30;0.23;;;;;;;20.96;61.97;96665.16;10488919;28;20043;-29
2023/08/15 05:18:11;;;;;;;0.52;0.50;;;;;;;20.97;62.02;96675.28;10485177;28;20658;-28
2023/08/15 05:23:14;;;;;;;0.47;0.40;;;;;;;20.96;61.84;96688.88;10497077;28;20112;-30
2023/08/15 05:28:15;;;;;;;0.40;0.32;;;;;;;20.94;61.93;96693.16;10488906;28;20056;-31
2023/08/15 05:33:15;;;;;;;0.33;0.30;;;;;;;20.96;61.93;96696.50;10496618;28;20035;-29
2023/08/15 05:38:15;;;;;;;0.35;0.35;;;;;;;20.94;61.74;96694.84;10495482;28;20287;-29
2023/08/15 05:43:16;;;;;;;0.30;0.30;;;;;;;20.96;61.93;96706.69;10488632;28;20091;-30
2023/08/15 05:48:19;;;;;;;0.40;0.40;;;;;;;20.93;61.98;96704.19;10497791;28;20042;-29
2023/08/15 05:53:19;;;;;;;0.40;0.40;;;;;;;20.95;62.02;96722.81;10496631;28;20083;-29
2023/08/15 05:58:19;;;;;;;0.40;0.40;;;;;;;20.97;62.07;96731.28;10497245;28;20032;-29
2023/08/15 06:03:20;;;;;;;0.40;0.40;;;;;;;20.96;61.76;96738.97;10493200;28;20036;-28
2023/08/15 06:08:20;;;;;;;0.55;0.40;;;;;;;20.98;62.01;96734.69;10496776;28;20356;-29
2023/08/15 06:13:21;;;;;;;0.40;0.40;;;;;;;20.99;61.95;96741.47;10492797;28;20086;-29
2023/08/15 06:18:21;;;;;;;0.47;0.47;;;;;;;20.97;61.72;96746.56;10496466;28;20040;-29
2023/08/15 06:23:22;;;;;;;0.60;0.50;;;;;;;20.97;61.82;96745.72;10493571;28;20077;-29
2023/08/15 06:28:22;;;;;;;0.50;0.40;;;;;;;20.97;62.12;96759.28;10491486;28;20043;-29
2023/08/15 06:33:22;;;;;;;0.50;0.30;;;;;;;20.98;61.74;96775.41;10495028;28;20044;-29
2023/08/15 06:38:23;;;;;;;0.57;0.40;;;;;;;20.97;61.82;96782.19;10490819;28;20434;-30
2023/08/15 06:43:23;;;;;;;0.55;0.40;;;;;;;20.98;61.71;96793.22;10495278;28;20059;-29
2023/08/15 06:48:24;;;;;;;0.40;0.40;;;;;;;20.99;61.90;96808.47;10490534;28;20044;-29
2023/08/15 06:53:24;;;;;;;0.47;0.37;;;;;;;20.99;61.73;96816.09;10493610;28;20691;-29
2023/08/15 06:58:26;;;;;;;0.50;0.50;;;;;;;20.98;61.84;96811.03;10493717;28;20501;-29
2023/08/15 07:03:26;;;;;;;0.30;0.30;;;;;;;21.00;62.02;96812.72;10494772;28;20020;-29
2023/08/15 07:08:26;;;;;;;0.47;0.40;;;;;;;20.98;61.85;96801.69;10487044;28;20589;-29
2023/08/15 07:13:27;;;;;;;0.40;0.40;;;;;;;21.01;62.05;96819.50;10492260;28;20291;-29
2023/08/15 07:18:27;;;;;;;0.60;0.43;;;;;;;20.94;61.89;96805.13;10488620;28;20475;-29
2023/08/15 07:23:27;;;;;;;0.47;0.40;;;;;;;21.00;62.09;96817.81;10486107;28;20514;-29
2023/08/15 07:28:28;;;;;;;0.70;0.63;;;;;;;21.00;61.80;96812.72;10494061;28;20037;-29
2023/08/15 07:33:28;;;;;;;0.40;0.40;;;;;;;20.97;61.75;96802.56;10484956;28;20029;-29
2023/08/15 07:38:31;;;;;;;0.50;0.50;;;;;;;20.99;61.85;96805.91;10492336;28;20871;-29
2023/08/15 07:43:31;;;;;;;0.25;0.25;;;;;;;20.99;61.86;96805.09;10492913;28;20556;-29
2023/08/15 07:48:32;;;;;;;0.40;0.40;;;;;;;21.01;61.90;96800.84;10485810;28;20094;-29
2023/08/15 07:53:32;;;;;;;0.40;0.40;;;;;;;21.00;61.85;96811.88;10492777;28;20479;-29
2023/08/15 07:58:33;;;;;;;0.33;0.33;;;;;;;21.00;62.04;96802.56;10491059;28;20478;-29
2023/08/15 08:03:38;;;;;;;0.40;0.40;;;;;;;21.00;61.54;96811.88;10491551;28;20441;-30
2023/08/15 08:08:38;;;;;;;0.30;0.30;;;;;;;21.00;61.90;96814.41;10487244;28;20082;-29
2023/08/15 08:13:38;;;;;;;0.40;0.40;;;;;;;21.00;61.98;96812.72;10488836;28;20449;-29
2023/08/15 08:18:39;;;;;;;0.53;0.53;;;;;;;20.94;61.95;96800.03;10492142;28;20051;-30
2023/08/15 08:23:39;;;;;;;0.40;0.40;;;;;;;21.01;61.78;96813.56;10485990;28;20021;-30
2023/08/15 08:28:40;;;;;;;0.40;0.40;;;;;;;21.00;61.76;96817.81;10492217;28;20089;-29
2023/08/15 08:33:40;;;;;;;0.50;0.50;;;;;;;21.02;61.88;96813.56;10487861;28;20032;-29
2023/08/15 08:38:40;;;;;;;0.77;0.60;;;;;;;21.03;62.27;96812.69;10489472;28;20323;-29
2023/08/15 08:43:41;;;;;;;0.57;0.50;;;;;;;21.00;62.00;96807.63;10491459;28;20028;-29
2023/08/15 08:48:42;;;;;;;0.40;0.40;;;;;;;20.98;62.04;96803.41;10488433;28;20037;-29
2023/08/15 08:53:43;;;;;;;0.30;0.30;;;;;;;21.01;61.91;96801.69;10494409;28;20499;-29
2023/08/15 08:58:48;;;;;;;0.37;0.37;;;;;;;21.01;62.08;96806.78;10491901;28;20049;-30
2023/08/15 09:03:49;;;;;;;0.37;0.37;;;;;;;21.03;62.17;96794.88;10497193;28;20035;-29
2023/08/15 09:08:49;;;;;;;0.50;0.50;;;;;;;21.03;62.07;96807.59;10495169;28;20379;-29
2023/08/15 09:13:50;;;;;;;0.60;0.60;;;;;;;21.05;62.13;96815.25;10492674;28;20300;-29
2023/08/15 09:18:50;;;;;;;0.75;0.65;;;;;;;21.05;62.13;96821.16;10499284;28;20281;-29
2023/08/15 09:23:51;;;;;;;0.57;0.50;;;;;;;21.04;62.19;96818.66;10492517;28;20398;-29
2023/08/15 09:28:52;;;;;;;0.45;0.45;;;;;;;21.03;62.22;96817.78;10497939;28;20234;-29
2023/08/15 09:33:52;;;;;;;0.40;0.40;;;;;;;21.00;62.25;96827.16;10494158;28;20033;-27
2023/08/15 09:38:58;;;;;;;0.40;0.40;;;;;;;21.05;62.01;96833.06;10495984;28;20760;-29
2023/08/15 09:44:00;;;;;;;0.50;0.50;;;;;;;21.04;62.53;96839.84;10496197;28;20086;-29
2023/08/15 09:49:01;;;;;;;0.35;0.35;;;;;;;21.05;62.24;96841.53;10495179;28;20119;-29
2023/08/15 09:54:02;;;;;;;0.30;0.30;;;;;;;21.08;62.62;96854.25;10498730;28;20028;-29
2023/08/15 09:59:03;;;;;;;0.50;0.50;;;;;;;21.07;62.77;96862.72;10493591;28;20116;-29
2023/08/15 10:04:07;;;;;;;0.60;0.60;;;;;;;21.10;63.22;96870.34;10492941;28;20507;-29
2023/08/15 10:09:09;;;;;;;0.63;0.47;;;;;;;21.09;63.29;96870.34;10495736;28;20032;-29
2023/08/15 10:14:14;;;;;;;0.50;0.50;;;;;;;21.09;62.79;96871.22;10495443;28;20673;-29
2023/08/15 10:19:18;;;;;;;0.50;0.43;;;;;;;21.08;62.55;96872.06;10497136;28;20506;-29
2023/08/15 10:24:18;;;;;;;0.40;0.40;;;;;;;21.07;62.52;96870.34;10495410;28;20040;-29
2023/08/15 10:29:19;;;;;;;0.40;0.40;;;;;;;21.08;62.80;96874.63;10493528;28;20427;-29
2023/08/15 10:34:19;;;;;;;0.40;0.40;;;;;;;21.07;62.84;96872.91;10495022;28;20071;-29
2023/08/15 10:39:20;;;;;;;0.70;0.70;;;;;;;21.08;62.52;96872.06;10490549;28;20036;-30
2023/08/15 10:44:21;;;;;;;0.43;0.43;;;;;;;21.09;62.74;96865.25;10495783;28;20028;-30
2023/08/15 10:49:23;;;;;;;0.40;0.40;;;;;;;21.07;62.34;96854.25;10486675;28;20037;-30
2023/08/15 10:54:23;;;;;;;0.50;0.50;;;;;;;21.08;62.70;96849.16;10495220;28;20137;-28
2023/08/15 10:59:23;;;;;;;0.40;0.40;;;;;;;21.09;62.36;96842.34;10485645;28;20124;-29
2023/08/15 11:04:24;;;;;;;0.40;0.40;;;;;;;21.09;62.75;96838.09;10488075;28;20514;-29
2023/08/15 11:09:31;;;;;;;0.85;0.60;;;;;;;21.10;62.66;96847.44;10493699;28;20166;-29
2023/08/15 11:14:32;;;;;;;0.63;0.60;;;;;;;21.07;62.59;96829.63;10492848;28;20130;-29
2023/08/15 11:19:33;;;;;;;0.40;0.40;;;;;;;21.10;62.75;96828.75;10493760;28;20098;-29
2023/08/15 11:24:34;;;;;;;0.40;0.40;;;;;;;21.11;62.92;96835.53;10492204;28;20032;-29
2023/08/15 11:29:34;;;;;;;0.40;0.40;;;;;;;21.09;62.68;96830.47;10490920;28;21912;-29
2023/08/15 11:34:41;;;;;;;0.53;0.53;;;;;;;21.11;62.85;96830.44;10493598;28;20058;-29
2023/08/15 11:39:41;;;;;;;0.40;0.40;;;;;;;21.08;62.46;96820.28;10486049;28;20509;-29
2023/08/15 11:44:41;;;;;;;0.50;0.50;;;;;;;21.11;63.05;96827.88;10493182;28;20035;-29
2023/08/15 11:49:46;;;;;;;0.43;0.43;;;;;;;21.11;63.11;96841.47;10485108;28;20043;-28
2023/08/15 11:54:46;;;;;;;0.40;0.40;;;;;;;21.12;62.81;96832.97;10492630;28;20487;-29
2023/08/15 11:59:50;;;;;;;0.50;0.50;;;;;;;21.10;63.22;96834.69;10490531;28;20098;-30
2023/08/15 12:04:53;;;;;;;0.35;0.35;;;;;;;21.12;62.85;96824.47;10492100;28;20119;-29
2023/08/15 12:09:55;;;;;;;0.63;0.60;;;;;;;21.05;62.96;96821.16;10489276;28;20036;-29
2023/08/15 12:14:56;;;;;;;0.40;0.40;;;;;;;21.12;63.06;96821.94;10491991;28;20039;-30
2023/08/15 12:19:56;;;;;;;0.40;0.40;;;;;;;21.12;62.92;96809.22;10487475;28;20029;-28
2023/08/15 12:24:56;;;;;;;0.43;0.40;;;;;;;21.12;63.10;96804.13;10492186;28;20032;-29
2023/08/15 12:29:57;;;;;;;0.50;0.50;;;;;;;21.10;62.80;96803.28;10489396;28;20046;-29
2023/08/15 12:34:57;;;;;;;0.40;0.40;;;;;;;21.12;63.34;96812.63;10491427;28;20032;-29
2023/08/15 12:39:57;;;;;;;0.70;0.57;;;;;;;21.10;62.58;96810.94;10486443;28;20055;-29
2023/08/15 12:44:58;;;;;;;0.60;0.60;;;;;;;21.12;62.43;96812.63;10483961;28;20028;-29
2023/08/15 12:49:59;;;;;;;0.50;0.50;;;;;;;21.09;62.78;96812.66;10491262;28;20035;-29
2023/08/15 12:55:00;;;;;;;0.25;0.25;;;;;;;21.11;62.91;96813.47;10482716;28;20029;-28
2023/08/15 13:00:01;;;;;;;0.50;0.50;;;;;;;21.11;62.70;96813.47;10491096;28;20406;-29
2023/08/15 13:05:04;;;;;;;0.45;0.45;;;;;;;21.11;62.71;96807.53;10487007;28;20499;-30
2023/08/15 13:10:05;;;;;;;0.40;0.40;;;;;;;21.12;63.03;96811.75;10490793;28;20036;-29
2023/08/15 13:15:06;;;;;;;0.55;0.55;;;;;;;21.11;62.73;96816.03;10489605;28;20043;-29
2023/08/15 13:20:07;;;;;;;0.52;0.52;;;;;;;21.06;62.68;96802.47;10490623;28;20036;-29
2023/08/15 13:25:08;;;;;;;0.45;0.45;;;;;;;21.11;62.82;96803.28;10487745;28;20417;-29
2023/08/15 13:30:08;;;;;;;0.40;0.40;;;;;;;21.13;62.60;96793.09;10485782;28;20513;-29
2023/08/15 13:35:09;;;;;;;0.50;0.50;;;;;;;21.10;62.66;96793.97;10490511;28;20032;-29
2023/08/15 13:40:10;;;;;;;0.30;0.30;;;;;;;21.12;62.59;96792.25;10489765;28;20414;-29
2023/08/15 13:45:10;;;;;;;0.30;0.28;;;;;;;21.12;62.64;96797.34;10498216;28;20044;-29
2023/08/15 13:50:10;;;;;;;0.83;0.70;;;;;;;21.13;62.84;96788.00;10491710;28;20044;-29
2023/08/15 13:55:12;;;;;;;0.47;0.47;;;;;;;21.08;62.57;96772.78;10497393;28;20290;-29
2023/08/15 14:00:13;;;;;;;0.55;0.50;;;;;;;21.12;62.55;96782.06;10491156;28;20048;-29
2023/08/15 14:05:13;;;;;;;0.50;0.50;;;;;;;21.13;62.87;96777.81;10497117;28;20028;-29
2023/08/15 14:10:14;;;;;;;0.40;0.40;;;;;;;21.14;62.77;96775.25;10492119;28;20426;-29
2023/08/15 14:15:14;;;;;;;0.63;0.40;;;;;;;21.13;62.79;96778.66;10490924;28;20395;-28
2023/08/15 14:20:14;;;;;;;1.07;0.37;;;;;;;21.13;63.05;96773.56;10496372;28;20310;-30
2023/08/15 14:25:16;;;;;;;0.33;0.33;;;;;;;21.14;62.92;96774.41;10491830;28;20024;-29
2023/08/15 14:30:16;;;;;;;0.30;0.30;;;;;;;21.15;63.16;96771.00;10495446;28;20036;-29
2023/08/15 14:35:17;;;;;;;0.50;0.50;;;;;;;21.16;63.40;96768.47;10494405;28;20036;-29
2023/08/15 14:40:20;;;;;;;0.45;0.45;;;;;;;21.14;63.12;96765.06;10492196;28;20346;-29
2023/08/15 14:45:22;;;;;;;0.40;0.40;;;;;;;21.16;63.03;96763.38;10489759;28;20115;-29
2023/08/15 14:50:23;;;;;;;0.35;0.35;;;;;;;21.16;62.82;96762.50;10494780;28;20063;-29
2023/08/15 14:55:24;;;;;;;0.47;0.40;;;;;;;21.16;63.03;96762.50;10487877;28;20068;-29
2023/08/15 15:00:24;;;;;;;0.40;0.40;;;;;;;21.16;63.10;96763.38;10495158;28;20036;-29
2023/08/15 15:05:24;;;;;;;0.40;0.40;;;;;;;21.17;63.06;96757.41;10491741;28;20079;-29
2023/08/15 15:10:25;;;;;;;0.43;0.43;;;;;;;21.16;62.57;96753.19;10490859;28;20517;-29
2023/08/15 15:15:25;;;;;;;0.43;0.40;;;;;;;21.18;63.47;96761.63;10494322;28;20306;-29
2023/08/15 15:20:25;;;;;;;0.50;0.50;;;;;;;21.16;63.41;96752.31;10488329;28;20653;-29
2023/08/15 15:25:26;;;;;;;0.47;0.40;;;;;;;21.15;63.28;96746.38;10494150;28;20029;-29
2023/08/15 15:30:26;;;;;;;0.50;0.50;;;;;;;21.16;63.03;96748.09;10487238;28;20815;-29
2023/08/15 15:35:27;;;;;;;0.43;0.43;;;;;;;21.17;63.27;96752.31;10493585;28;20352;-29
2023/08/15 15:40:28;;;;;;;0.40;0.40;;;;;;;21.18;63.06;96763.34;10489647;28;20051;-29
2023/08/15 15:45:28;;;;;;;0.40;0.40;;;;;;;21.17;63.06;96757.41;10488133;28;20494;-29
2023/08/15 15:50:28;;;;;;;0.40;0.40;;;;;;;21.16;63.13;96753.19;10493115;28;20394;-29
2023/08/15 15:55:29;;;;;;;0.33;0.33;;;;;;;21.16;62.80;96748.09;10487596;28;20407;-29
2023/08/15 16:00:29;;;;;;;0.37;0.30;;;;;;;21.16;63.07;96752.31;10492847;28;20029;-29
2023/08/15 16:05:30;;;;;;;0.50;0.40;;;;;;;21.18;62.98;96751.47;10484777;28;20027;-29
2023/08/15 16:10:30;;;;;;;0.43;0.30;;;;;;;21.18;63.03;96742.97;10492326;28;20028;-29
2023/08/15 16:15:30;;;;;;;0.40;0.40;;;;;;;21.19;63.17;96752.28;10489265;28;20388;-30
2023/08/15 16:20:31;;;;;;;0.30;0.30;;;;;;;21.18;63.00;96748.91;10491694;28;20538;-30
2023/08/15 16:25:31;;;;;;;0.50;0.50;;;;;;;21.17;62.88;96744.69;10488654;28;20392;-29
2023/08/15 16:30:32;;;;;;;0.30;0.30;;;;;;;21.18;62.86;96746.38;10487087;28;20029;-29
2023/08/15 16:35:32;;;;;;;0.30;0.30;;;;;;;21.18;63.25;96746.38;10488392;28;20025;-29
2023/08/15 16:40:33;;;;;;;0.40;0.40;;;;;;;21.18;63.08;96748.91;10484248;28;20290;-28
2023/08/15 16:45:33;;;;;;;0.50;0.50;;;;;;;21.18;62.88;96754.00;10491799;28;20032;-30
2023/08/15 16:50:34;;;;;;;0.60;0.30;;;;;;;21.18;63.10;96758.25;10490134;28;20078;-30
2023/08/15 16:55:35;;;;;;;0.40;0.40;;;;;;;21.18;62.86;96761.63;10491366;28;20032;-29
2023/08/15 17:00:36;;;;;;;0.50;0.50;;;;;;;21.17;62.94;96759.97;10489543;28;20025;-28
2023/08/15 17:05:36;;;;;;;0.38;0.38;;;;;;;21.16;63.03;96762.50;10487229;28;20032;-29
2023/08/15 17:10:36;;;;;;;1.43;0.30;;;;;;;21.16;62.75;96771.00;10487624;28;20086;-28
2023/08/15 17:15:37;;;;;;;1.10;0.70;;;;;;;21.16;62.47;96765.91;10487114;28;20036;-30
2023/08/15 17:20:37;;;;;;;1.87;1.00;;;;;;;21.18;63.09;96776.91;10499030;28;20040;-29
2023/08/15 17:25:37;;;;;;;1.97;0.80;;;;;;;21.18;62.96;96769.28;10491754;28;20033;-30
2023/08/15 17:30:38;;;;;;;1.13;1.00;;;;;;;21.18;63.02;96781.16;10498416;28;20120;-30
2023/08/15 17:35:38;;;;;;;1.33;0.63;;;;;;;21.18;62.89;96776.91;10490380;28;20043;-30
2023/08/15 17:40:39;;;;;;;1.13;0.90;;;;;;;21.18;62.68;96778.59;10497195;28;20290;-29
2023/08/15 17:45:39;;;;;;;0.60;0.60;;;;;;;21.17;62.92;96776.91;10498007;28;20041;-29
2023/08/15 17:50:40;;;;;;;0.63;0.63;;;;;;;21.18;62.54;96776.06;10489857;28;20291;-28
2023/08/15 17:55:40;;;;;;;0.50;0.47;;;;;;;21.16;62.67;96781.19;10499108;28;20043;-29
2023/08/15 18:00:41;;;;;;;0.90;0.80;;;;;;;21.17;62.59;96780.31;10493615;28;20032;-30
2023/08/15 18:05:42;;;;;;;0.60;0.50;;;;;;;21.17;62.60;96782.00;10497207;28;20024;-29
2023/08/15 18:10:47;;;;;;;0.68;0.40;;;;;;;21.15;62.46;96783.75;10490965;28;20131;-29
2023/08/15 18:15:47;;;;;;;0.50;0.50;;;;;;;21.13;62.46;96786.28;10490763;28;20099;-30
2023/08/15 18:20:48;;;;;;;0.40;0.40;;;;;;;21.16;62.52;96793.91;10495936;28;20528;-29
2023/08/15 18:25:48;;;;;;;0.50;0.50;;;;;;;21.15;62.37;96801.56;10485868;28;20085;-29
2023/08/15 18:30:48;;;;;;;0.43;0.40;;;;;;;21.15;62.48;96802.38;10496458;28;20033;-29
2023/08/15 18:35:51;;;;;;;0.60;0.40;;;;;;;21.09;62.65;96799.91;10491292;28;20305;-29
2023/08/15 18:40:51;;;;;;;0.30;0.30;;;;;;;21.13;62.79;96819.38;10495731;28;20514;-29
2023/08/15 18:45:52;;;;;;;0.93;0.40;;;;;;;21.15;62.52;96822.75;10487439;28;20057;-29
2023/08/15 18:50:53;;;;;;;1.25;0.40;;;;;;;21.17;62.31;96835.50;10488245;28;20277;-30
2023/08/15 18:55:53;;;;;;;0.75;0.60;;;;;;;21.15;62.41;96830.41;10493855;28;20029;-29
2023/08/15 19:00:53;;;;;;;0.50;0.50;;;;;;;21.15;62.48;96848.22;10492759;28;20487;-28
2023/08/15 19:05:54;;;;;;;0.70;0.70;;;;;;;21.16;62.46;96860.13;10495241;28;20495;-29
2023/08/15 19:10:54;;;;;;;0.40;0.27;;;;;;;21.17;62.44;96866.91;10492605;28;20037;-29
2023/08/15 19:15:54;;;;;;;0.40;0.40;;;;;;;21.16;62.28;96862.66;10494510;28;20028;-30
2023/08/15 19:20:57;;;;;;;0.40;0.40;;;;;;;21.15;62.30;96867.75;10493132;28;20024;-29
2023/08/15 19:25:57;;;;;;;0.93;0.50;;;;;;;21.16;62.40;96875.41;10490839;28;20029;-29
2023/08/15 19:30:58;;;;;;;0.50;0.50;;;;;;;21.16;62.35;96880.50;10492870;28;20036;-29
2023/08/15 19:35:58;;;;;;;0.60;0.43;;;;;;;21.16;62.35;96880.50;10491818;28;20021;-30
2023/08/15 19:40:58;;;;;;;0.60;0.60;;;;;;;21.16;62.62;96890.69;10488846;28;20029;-29
2023/08/15 19:45:59;;;;;;;0.50;0.50;;;;;;;21.16;62.55;96890.69;10493669;28;20035;-29
2023/08/15 19:50:59;;;;;;;0.40;0.40;;;;;;;21.16;62.18;96893.22;10486633;28;20283;-30
2023/08/15 19:55:59;;;;;;;0.40;0.40;;;;;;;21.16;62.22;96898.31;10492842;28;20392;-30
2023/08/15 20:01:00;;;;;;;0.40;0.40;;;;;;;21.17;62.14;96905.09;10491139;28;20032;-29
2023/08/15 20:06:00;;;;;;;0.43;0.43;;;;;;;21.17;62.34;96906.78;10490512;28;20043;-29
2023/08/15 20:11:00;;;;;;;0.30;0.30;;;;;;;21.16;62.32;96908.50;10496411;28;20293;-29
2023/08/15 20:16:01;;;;;;;0.60;0.37;;;;;;;21.16;62.35;96911.03;10490374;28;20035;-28
2023/08/15 20:21:02;;;;;;;0.20;0.20;;;;;;;21.16;62.16;96900.00;10491857;28;20634;-29
2023/08/15 20:26:03;;;;;;;0.30;0.20;;;;;;;21.16;62.08;96897.47;10488193;28;20021;-29
2023/08/15 20:31:04;;;;;;;0.30;0.30;;;;;;;21.15;62.21;96893.22;10491579;28;20033;-30
2023/08/15 20:36:05;;;;;;;0.20;0.20;;;;;;;21.15;62.13;96899.13;10486395;28;20475;-29
2023/08/15 20:41:05;;;;;;;0.60;0.60;;;;;;;21.17;62.16;96891.50;10484396;28;20053;-29
2023/08/15 20:46:06;;;;;;;0.95;0.30;;;;;;;21.17;62.19;96894.91;10490620;28;20917;-29
2023/08/15 20:51:06;;;;;;;0.60;0.40;;;;;;;21.17;62.07;96910.19;10487309;28;20459;-30
2023/08/15 20:56:07;;;;;;;0.47;0.40;;;;;;;21.17;62.08;96909.31;10491186;28;20063;-29
2023/08/15 21:01:07;;;;;;;0.38;0.38;;;;;;;21.17;62.04;96912.72;10483161;28;20039;-30
2023/08/15 21:06:07;;;;;;;0.40;0.40;;;;;;;21.16;61.79;96916.13;10491047;28;20509;-29
2023/08/15 21:11:08;;;;;;;0.40;0.40;;;;;;;21.17;62.12;96920.38;10482819;28;20305;-29
2023/08/15 21:16:08;;;;;;;0.40;0.40;;;;;;;21.17;62.08;96922.91;10491063;28;20036;-29
2023/08/15 21:21:11;;;;;;;0.47;0.43;;;;;;;21.18;62.30;96923.75;10481887;28;20507;-30
2023/08/15 21:26:12;;;;;;;0.40;0.35;;;;;;;21.15;61.92;96923.78;10490905;28;20035;-29
2023/08/15 21:31:12;;;;;;;0.38;0.30;;;;;;;21.11;61.99;96915.31;10481154;28;20043;-29
2023/08/15 21:36:12;;;;;;;0.77;0.57;;;;;;;21.17;62.09;96927.16;10490773;28;20040;-29
2023/08/15 21:41:13;;;;;;;0.40;0.40;;;;;;;21.15;62.11;96924.59;10485743;28;20094;-29
2023/08/15 21:46:13;;;;;;;0.30;0.30;;;;;;;21.16;61.96;96920.38;10490045;28;20430;-30
2023/08/15 21:51:14;;;;;;;0.27;0.27;;;;;;;21.12;62.10;96919.53;10489410;28;20551;-29
2023/08/15 21:56:14;;;;;;;0.40;0.40;;;;;;;21.18;62.09;96926.28;10485191;28;20303;-29
2023/08/15 22:01:14;;;;;;;0.37;0.30;;;;;;;21.16;62.15;96923.78;10492949;28;20029;-29
2023/08/15 22:06:15;;;;;;;0.33;0.30;;;;;;;21.17;61.84;96928.00;10493592;28;20036;-29
2023/08/15 22:11:15;;;;;;;0.35;0.35;;;;;;;21.17;61.96;96935.66;10496638;28;20033;-28
2023/08/15 22:16:15;;;;;;;0.40;0.37;;;;;;;21.17;61.91;96928.00;10493219;28;20034;-30
2023/08/15 22:21:16;;;;;;;0.40;0.40;;;;;;;21.17;61.75;96935.66;10493660;28;20040;-29
2023/08/15 22:26:16;;;;;;;0.40;0.40;;;;;;;21.17;61.88;96933.09;10495925;28;20034;-29
2023/08/15 22:31:17;;;;;;;0.28;0.28;;;;;;;21.18;61.94;96922.06;10490260;28;20286;-29
2023/08/15 22:36:17;;;;;;;0.40;0.40;;;;;;;21.16;62.03;96911.03;10496421;28;20036;-29
2023/08/15 22:41:18;;;;;;;0.27;0.27;;;;;;;21.17;61.83;96912.72;10494492;28;20036;-29
2023/08/15 22:46:18;;;;;;;0.27;0.27;;;;;;;21.17;62.22;96912.72;10495177;28;20107;-29
2023/08/15 22:51:18;;;;;;;0.20;0.20;;;;;;;21.17;61.72;96916.97;10494568;28;20039;-29
2023/08/15 22:56:20;;;;;;;0.33;0.30;;;;;;;21.14;61.95;96907.63;10489221;28;20033;-36
2023/08/15 23:01:20;;;;;;;0.30;0.30;;;;;;;21.16;61.70;96894.91;10495302;28;20286;-29
2023/08/15 23:06:21;;;;;;;0.47;0.43;;;;;;;21.18;61.82;96898.28;10493505;28;20036;-29
2023/08/15 23:11:22;;;;;;;0.40;0.30;;;;;;;21.18;61.73;96891.50;10493538;28;20036;-28
2023/08/15 23:16:22;;;;;;;0.20;0.20;;;;;;;21.18;62.12;96877.91;10492065;28;20029;-29